Time;durP1;ratioP1;P1;durP2;ratioP2;P2;SDS_P1;SDS_P2;PMS_P1;PMS_P2;Temp;Humidity;BMP_temperature;BMP_pressure;BME280_temperature;BME280_humidity;BME280_pressure;Samples;Min_cycle;Max_cycle;Signal;HPM_P1;HPM_P2
2022/10/09 00:02:21;;;;;;;11.77;7.17;;;;;;;6.25;100.00;102382.31;5030763;28;20760;-84
2022/10/09 00:04:46;;;;;;;15.20;7.20;;;;;;;6.31;100.00;102408.69;5030427;28;20562;-84
2022/10/09 00:07:12;;;;;;;17.17;7.77;;;;;;;6.29;100.00;102410.66;5030096;28;20041;-84
2022/10/09 00:09:37;;;;;;;13.10;7.47;;;;;;;6.17;100.00;102399.19;5005032;28;20077;-84
2022/10/09 00:12:03;;;;;;;13.53;7.20;;;;;;;6.19;100.00;102405.28;5030867;28;20131;-84
2022/10/09 00:14:28;;;;;;;15.50;7.37;;;;;;;6.25;100.00;102412.78;5030746;28;20772;-84
2022/10/09 00:16:53;;;;;;;13.47;6.93;;;;;;;6.09;100.00;102409.81;5005748;28;20689;-84
2022/10/09 00:19:19;;;;;;;13.43;6.80;;;;;;;6.06;100.00;102405.56;5030789;28;20046;-84
2022/10/09 00:21:44;;;;;;;13.17;6.83;;;;;;;6.12;100.00;102416.75;5030653;28;20041;-84
2022/10/09 00:24:09;;;;;;;14.70;6.90;;;;;;;6.06;100.00;102416.34;5029904;28;20045;-83
2022/10/09 00:26:35;;;;;;;14.10;7.20;;;;;;;6.04;100.00;102418.34;4990933;28;20389;-83
2022/10/09 00:29:00;;;;;;;12.57;6.87;;;;;;;6.00;100.00;102402.63;5029941;28;20017;-84
2022/10/09 00:31:26;;;;;;;14.80;7.17;;;;;;;6.15;100.00;102419.19;5030702;28;20043;-84
2022/10/09 00:33:51;;;;;;;18.70;7.97;;;;;;;6.02;100.00;102422.16;5030055;28;20079;-84
2022/10/09 00:36:20;;;;;;;16.63;7.63;;;;;;;5.95;100.00;102424.53;5005952;28;20128;-84
2022/10/09 00:38:46;;;;;;;15.00;7.73;;;;;;;5.94;100.00;102428.22;5030088;28;20033;-85
2022/10/09 00:41:30;;;;;;;14.73;7.40;;;;;;;6.10;100.00;102418.78;5030066;28;20595;-85
2022/10/09 00:44:01;;;;;;;16.23;7.75;;;;;;;5.95;100.00;102429.94;5030300;28;20045;-85
2022/10/09 00:46:43;;;;;;;16.40;7.97;;;;;;;5.98;100.00;102418.06;5020889;28;20163;-85
2022/10/09 00:49:32;;;;;;;15.03;7.87;;;;;;;5.98;100.00;102420.75;5029563;28;20048;-85
2022/10/09 00:52:02;;;;;;;14.50;7.77;;;;;;;5.85;100.00;102424.56;5029981;28;20402;-85
2022/10/09 00:54:31;;;;;;;16.50;8.07;;;;;;;5.83;100.00;102421.13;5004753;28;20052;-85
2022/10/09 00:56:56;;;;;;;15.43;7.73;;;;;;;5.79;100.00;102411.66;5029586;28;20065;-85
2022/10/09 00:59:22;;;;;;;17.17;7.47;;;;;;;5.76;100.00;102420.00;5029617;28;20167;-84
2022/10/09 01:01:48;;;;;;;16.30;8.37;;;;;;;5.72;100.00;102411.38;5004687;28;20048;-85
2022/10/09 01:04:13;;;;;;;15.53;8.10;;;;;;;5.83;100.00;102418.44;5028947;28;20040;-85
2022/10/09 01:06:54;;;;;;;15.67;8.53;;;;;;;5.85;100.00;102416.47;5030435;28;20052;-85
2022/10/09 01:09:27;;;;;;;14.07;8.10;;;;;;;5.84;100.00;102412.09;5029919;28;20118;-85
2022/10/09 01:12:08;;;;;;;14.87;8.07;;;;;;;5.79;100.00;102406.28;5011385;28;20461;-84
2022/10/09 01:14:42;;;;;;;13.97;8.10;;;;;;;5.74;100.00;102401.34;5029358;28;20386;-84
2022/10/09 01:17:27;;;;;;;13.48;7.40;;;;;;;5.85;100.00;102384.19;5029890;28;20471;-85
2022/10/09 01:20:15;;;;;;;16.97;8.57;;;;;;;5.77;100.00;102400.22;5029181;28;20072;-84
2022/10/09 01:23:27;;;;;;;15.13;8.03;;;;;;;5.76;100.00;102403.88;5029386;28;20043;-83
2022/10/09 01:26:28;;;;;;;16.10;8.60;;;;;;;5.75;100.00;102402.16;4958939;28;20316;-84
2022/10/09 01:28:59;;;;;;;14.60;8.50;;;;;;;5.54;100.00;102389.72;4977176;28;20132;-85
2022/10/09 01:31:28;;;;;;;15.10;8.47;;;;;;;5.66;100.00;102397.66;5030288;28;20053;-84
2022/10/09 01:33:53;;;;;;;15.60;9.13;;;;;;;5.58;100.00;102396.50;5020736;28;20029;-83
2022/10/09 01:36:21;;;;;;;14.43;8.30;;;;;;;5.51;100.00;102390.00;5004975;28;20041;-83
2022/10/09 01:38:47;;;;;;;14.70;8.00;;;;;;;5.51;100.00;102392.69;5028920;28;20068;-82
2022/10/09 01:41:12;;;;;;;14.37;8.00;;;;;;;5.59;100.00;102386.63;5029690;28;20041;-82
2022/10/09 01:43:40;;;;;;;16.40;8.80;;;;;;;5.64;100.00;102389.72;5029224;28;20484;-83
2022/10/09 01:46:26;;;;;;;16.47;9.63;;;;;;;5.66;100.00;102389.59;5005612;28;20060;-83
2022/10/09 01:49:11;;;;;;;16.03;9.50;;;;;;;5.61;100.00;102389.16;5029309;28;20087;-82
2022/10/09 01:51:50;;;;;;;16.10;8.97;;;;;;;5.55;100.00;102385.22;5029937;28;20064;-84
2022/10/09 01:54:27;;;;;;;13.70;8.60;;;;;;;5.44;100.00;102372.75;5029194;28;20381;-84
2022/10/09 01:56:55;;;;;;;15.33;8.43;;;;;;;5.37;100.00;102366.22;5029693;28;20041;-84
2022/10/09 01:59:23;;;;;;;16.50;8.43;;;;;;;5.63;100.00;102371.91;5029134;28;20071;-84
2022/10/09 02:01:49;;;;;;;15.03;8.50;;;;;;;5.34;100.00;102363.81;5027796;28;21512;-84
2022/10/09 02:04:16;;;;;;;14.73;8.60;;;;;;;5.38;100.00;102370.59;5029197;28;20124;-84
2022/10/09 02:06:43;;;;;;;17.23;9.20;;;;;;;5.40;100.00;102360.56;5029564;28;21457;-84
2022/10/09 02:09:13;;;;;;;16.13;9.40;;;;;;;5.32;100.00;102363.97;5028530;28;20115;-83
2022/10/09 02:11:42;;;;;;;15.43;8.77;;;;;;;5.22;100.00;102365.75;5029731;28;20033;-84
2022/10/09 02:14:07;;;;;;;17.63;9.30;;;;;;;5.36;100.00;102361.84;5028819;28;20037;-83
2022/10/09 02:16:43;;;;;;;14.23;9.30;;;;;;;5.37;100.00;102356.31;5029116;28;20068;-84
2022/10/09 02:19:42;;;;;;;17.20;9.33;;;;;;;5.31;100.00;102373.00;5028728;28;20649;-83
2022/10/09 02:22:16;;;;;;;17.30;9.53;;;;;;;5.18;100.00;102364.34;5020538;28;20061;-84
2022/10/09 02:24:43;;;;;;;15.90;9.70;;;;;;;5.19;100.00;102366.88;5031739;28;20126;-84
2022/10/09 02:27:09;;;;;;;15.77;9.07;;;;;;;5.28;100.00;102361.69;5032481;28;20067;-83
2022/10/09 02:29:38;;;;;;;15.37;8.40;;;;;;;5.13;100.00;102364.78;5032305;28;20049;-84
2022/10/09 02:32:04;;;;;;;16.97;8.47;;;;;;;5.11;100.00;102345.25;5032784;28;20043;-84
2022/10/09 02:34:29;;;;;;;15.27;8.93;;;;;;;5.04;100.00;102350.31;5032252;28;20025;-84
2022/10/09 02:36:55;;;;;;;13.43;8.43;;;;;;;5.05;100.00;102351.19;5032650;28;20059;-84
2022/10/09 02:39:20;;;;;;;13.33;8.83;;;;;;;5.08;100.00;102350.91;5007706;28;20144;-84
2022/10/09 02:41:45;;;;;;;14.00;8.60;;;;;;;4.99;100.00;102335.59;5033002;28;20033;-84
2022/10/09 02:44:11;;;;;;;12.87;8.67;;;;;;;5.09;100.00;102349.91;5031836;28;20037;-84
2022/10/09 02:46:37;;;;;;;14.50;9.10;;;;;;;4.99;100.00;102349.03;5033036;28;20037;-84
2022/10/09 02:49:03;;;;;;;14.23;8.53;;;;;;;5.01;100.00;102344.38;5031483;28;20094;-84
2022/10/09 02:51:28;;;;;;;14.80;8.60;;;;;;;4.80;100.00;102334.59;5023249;28;20053;-84
2022/10/09 02:53:54;;;;;;;15.93;9.33;;;;;;;4.85;100.00;102351.13;5006501;28;20382;-84
2022/10/09 02:56:21;;;;;;;13.10;8.83;;;;;;;4.84;100.00;102341.38;5013956;28;20029;-84
2022/10/09 02:58:47;;;;;;;16.43;9.33;;;;;;;4.97;100.00;102338.44;5031795;28;20455;-84
2022/10/09 03:01:12;;;;;;;15.33;9.93;;;;;;;5.03;100.00;102337.03;5032076;28;20048;-85
2022/10/09 03:03:38;;;;;;;16.20;8.97;;;;;;;4.96;100.00;102338.56;5023743;28;20438;-84
2022/10/09 03:06:14;;;;;;;16.40;9.40;;;;;;;4.94;100.00;102333.34;5031276;28;20040;-84
2022/10/09 03:08:42;;;;;;;16.43;9.57;;;;;;;5.02;100.00;102343.41;5006918;28;20646;-83
2022/10/09 03:11:09;;;;;;;19.50;10.40;;;;;;;4.99;100.00;102324.88;5031442;28;21370;-83
2022/10/09 03:13:35;;;;;;;19.07;10.73;;;;;;;5.13;100.00;102332.53;5031712;28;20166;-83
2022/10/09 03:16:08;;;;;;;19.23;10.67;;;;;;;5.13;100.00;102340.59;5032315;28;20041;-83
2022/10/09 03:18:34;;;;;;;18.43;10.87;;;;;;;5.13;100.00;102337.91;5031916;28;20034;-83
2022/10/09 03:21:00;;;;;;;21.00;11.07;;;;;;;5.19;100.00;102337.34;5032035;28;20045;-83
2022/10/09 03:23:26;;;;;;;15.93;9.23;;;;;;;5.17;100.00;102333.13;5031946;28;20048;-83
2022/10/09 03:26:11;;;;;;;18.70;10.70;;;;;;;5.13;100.00;102332.53;5031402;28;20132;-83
2022/10/09 03:28:39;;;;;;;22.13;11.07;;;;;;;5.19;100.00;102337.34;5031245;28;20665;-83
2022/10/09 03:31:05;;;;;;;17.47;10.23;;;;;;;5.20;100.00;102330.97;5030878;28;20499;-83
2022/10/09 03:33:31;;;;;;;17.80;10.20;;;;;;;5.18;100.00;102334.78;5031523;28;20045;-83
2022/10/09 03:35:57;;;;;;;16.80;10.03;;;;;;;5.18;100.00;102332.97;5012993;28;20485;-84
2022/10/09 03:38:22;;;;;;;17.23;9.87;;;;;;;5.12;100.00;102320.09;5031199;28;20039;-84
2022/10/09 03:40:47;;;;;;;16.83;10.27;;;;;;;5.18;100.00;102329.41;5029798;28;20501;-84
2022/10/09 03:43:13;;;;;;;16.83;9.87;;;;;;;5.11;100.00;102321.06;5031422;28;20441;-84
2022/10/09 03:45:40;;;;;;;16.07;9.47;;;;;;;5.13;100.00;102321.78;5005508;28;20068;-84
2022/10/09 03:48:05;;;;;;;17.07;10.10;;;;;;;5.14;100.00;102322.63;5030468;28;20068;-84
2022/10/09 03:50:31;;;;;;;16.13;9.97;;;;;;;5.13;100.00;102327.16;5031222;28;20445;-83
2022/10/09 03:52:56;;;;;;;18.40;9.77;;;;;;;5.11;100.00;102329.13;5031647;28;20056;-84
2022/10/09 03:55:22;;;;;;;15.17;8.90;;;;;;;5.00;100.00;102315.81;5031556;28;20037;-84
2022/10/09 03:57:47;;;;;;;17.30;9.50;;;;;;;4.94;100.00;102327.97;5005288;28;20033;-83
2022/10/09 04:00:13;;;;;;;16.87;9.40;;;;;;;5.05;100.00;102327.00;5030675;28;20037;-83
2022/10/09 04:02:38;;;;;;;16.73;9.13;;;;;;;4.92;100.00;102339.84;4989928;28;20190;-84
2022/10/09 04:05:04;;;;;;;21.80;9.57;;;;;;;4.84;100.00;102333.31;5004866;28;20828;-83
2022/10/09 04:07:30;;;;;;;13.43;9.13;;;;;;;4.81;100.00;102336.25;5031351;28;20050;-83
2022/10/09 04:09:55;;;;;;;16.30;8.90;;;;;;;4.91;100.00;102328.25;5030220;28;20043;-83
2022/10/09 04:12:21;;;;;;;17.17;9.20;;;;;;;4.78;100.00;102339.22;5031060;28;20072;-83
2022/10/09 04:14:46;;;;;;;15.17;8.43;;;;;;;4.78;100.00;102341.91;5030468;28;20548;-83
2022/10/09 04:17:12;;;;;;;15.83;8.57;;;;;;;4.81;100.00;102330.91;5030755;28;20069;-83
2022/10/09 04:19:37;;;;;;;14.70;8.50;;;;;;;4.76;100.00;102325.13;5030563;28;20042;-83
2022/10/09 04:22:02;;;;;;;13.60;8.23;;;;;;;4.66;100.00;102334.97;5030571;28;20158;-83
2022/10/09 04:24:28;;;;;;;15.03;8.30;;;;;;;4.67;100.00;102333.97;5004849;28;20788;-83
2022/10/09 04:26:53;;;;;;;16.27;8.23;;;;;;;4.60;100.00;102316.69;5030459;28;20041;-83
2022/10/09 04:29:19;;;;;;;13.50;8.40;;;;;;;4.70;100.00;102333.69;5028433;28;20049;-82
2022/10/09 04:31:44;;;;;;;14.90;8.40;;;;;;;4.55;100.00;102339.44;5012772;28;20072;-83
2022/10/09 04:34:10;;;;;;;11.10;7.90;;;;;;;4.52;100.00;102331.66;5029869;28;20060;-82
2022/10/09 04:36:35;;;;;;;14.00;8.00;;;;;;;4.54;100.00;102329.69;5030912;28;20032;-83
2022/10/09 04:39:01;;;;;;;12.37;7.90;;;;;;;4.56;100.00;102341.13;5029541;28;20037;-83
2022/10/09 04:41:26;;;;;;;13.60;8.13;;;;;;;4.54;100.00;102336.88;5030598;28;20036;-83
2022/10/09 04:43:55;;;;;;;17.47;8.30;;;;;;;4.50;100.00;102324.72;5030437;28;20075;-84
2022/10/09 04:46:21;;;;;;;14.20;8.50;;;;;;;4.47;100.00;102320.47;5029758;28;20040;-84
2022/10/09 04:48:47;;;;;;;18.60;9.27;;;;;;;4.55;100.00;102328.69;5030518;28;20033;-84
2022/10/09 04:51:14;;;;;;;16.37;9.80;;;;;;;4.62;100.00;102325.47;5021484;28;20141;-84
2022/10/09 04:53:39;;;;;;;16.67;8.83;;;;;;;4.55;100.00;102317.94;5030425;28;20793;-84
2022/10/09 04:56:08;;;;;;;16.60;9.53;;;;;;;4.44;100.00;102303.81;5030542;28;20033;-83
2022/10/09 04:58:35;;;;;;;15.80;9.17;;;;;;;4.53;100.00;102322.63;5030037;28;20041;-83
2022/10/09 05:01:05;;;;;;;16.27;9.10;;;;;;;4.50;100.00;102325.59;5029466;28;20085;-83
2022/10/09 05:03:30;;;;;;;16.87;9.27;;;;;;;4.59;100.00;102320.38;5021292;28;20041;-83
2022/10/09 05:06:00;;;;;;;15.33;9.57;;;;;;;4.58;100.00;102319.53;5003749;28;20113;-83
2022/10/09 05:08:25;;;;;;;13.17;8.03;;;;;;;4.50;100.00;102309.47;5029560;28;20127;-83
2022/10/09 05:10:50;;;;;;;15.87;8.70;;;;;;;4.55;100.00;102315.28;5029751;28;20035;-83
2022/10/09 05:13:16;;;;;;;12.77;8.27;;;;;;;4.52;100.00;102302.13;5029955;28;20033;-83
2022/10/09 05:15:41;;;;;;;14.27;8.33;;;;;;;4.51;100.00;102302.28;5030052;28;20580;-83
2022/10/09 05:18:07;;;;;;;15.67;8.80;;;;;;;4.56;100.00;102308.91;5030131;28;20037;-83
2022/10/09 05:20:32;;;;;;;16.77;8.77;;;;;;;4.54;100.00;102302.00;5028239;28;20083;-83
2022/10/09 05:22:57;;;;;;;17.03;8.90;;;;;;;4.28;100.00;102277.47;5029896;28;20053;-84
2022/10/09 05:25:23;;;;;;;14.10;8.60;;;;;;;4.28;100.00;102299.78;5029422;28;20069;-83
2022/10/09 05:27:48;;;;;;;11.23;8.27;;;;;;;4.34;100.00;102293.88;5004929;28;20065;-83
2022/10/09 05:30:13;;;;;;;12.87;9.00;;;;;;;4.37;100.00;102292.75;5029267;28;20064;-82
2022/10/09 05:32:39;;;;;;;15.77;8.47;;;;;;;4.42;100.00;102284.28;5030604;28;20067;-83
2022/10/09 05:35:05;;;;;;;13.97;8.53;;;;;;;4.30;100.00;102296.97;5029002;28;20041;-83
2022/10/09 05:37:30;;;;;;;14.50;8.17;;;;;;;4.19;100.00;102301.44;5029505;28;20366;-83
2022/10/09 05:39:55;;;;;;;16.23;8.73;;;;;;;4.31;100.00;102294.16;5029304;28;20083;-84
2022/10/09 05:42:21;;;;;;;15.80;9.90;;;;;;;4.32;100.00;102290.47;5021063;28;20495;-84
2022/10/09 05:44:46;;;;;;;15.33;8.50;;;;;;;4.28;100.00;102299.78;5028804;28;20099;-83
2022/10/09 05:47:12;;;;;;;14.63;8.63;;;;;;;4.28;100.00;102294.41;5029816;28;20166;-83
2022/10/09 05:49:37;;;;;;;15.87;9.40;;;;;;;4.28;100.00;102293.56;5029630;28;20076;-83
2022/10/09 05:52:03;;;;;;;16.80;9.53;;;;;;;4.27;100.00;102291.84;5029113;28;20421;-84
2022/10/09 05:54:28;;;;;;;15.83;9.67;;;;;;;4.28;100.00;102294.41;5029824;28;20045;-84
2022/10/09 05:56:54;;;;;;;13.47;9.83;;;;;;;4.21;100.00;102294.09;5029995;28;20064;-83
2022/10/09 05:59:19;;;;;;;15.80;9.67;;;;;;;4.28;100.00;102293.56;5031284;28;20515;-83
2022/10/09 06:01:48;;;;;;;17.37;10.07;;;;;;;4.29;100.00;102296.09;5033717;28;20035;-83
2022/10/09 06:04:19;;;;;;;16.80;9.70;;;;;;;4.15;100.00;102299.16;5032833;28;20039;-83
2022/10/09 06:06:47;;;;;;;16.73;9.70;;;;;;;4.25;100.00;102304.56;5033257;28;20048;-83
2022/10/09 06:09:13;;;;;;;16.10;9.83;;;;;;;4.23;100.00;102307.41;5033150;28;20041;-83
2022/10/09 06:11:39;;;;;;;17.03;10.07;;;;;;;4.28;100.00;102298.94;5025111;28;20033;-83
2022/10/09 06:14:07;;;;;;;16.47;10.27;;;;;;;4.17;100.00;102298.03;5032493;28;20486;-83
2022/10/09 06:16:35;;;;;;;19.80;10.80;;;;;;;4.29;100.00;102306.84;5033636;28;20036;-83
2022/10/09 06:19:01;;;;;;;14.70;10.23;;;;;;;4.35;100.00;102300.09;5033228;28;20645;-82
2022/10/09 06:21:27;;;;;;;15.43;10.30;;;;;;;4.40;100.00;102303.22;5032845;28;20068;-83
2022/10/09 06:23:55;;;;;;;19.43;11.80;;;;;;;4.39;100.00;102298.81;5032727;28;20131;-83
2022/10/09 06:26:24;;;;;;;15.20;10.23;;;;;;;4.39;100.00;102302.38;5033023;28;20079;-83
2022/10/09 06:28:50;;;;;;;14.03;9.60;;;;;;;4.47;100.00;102300.84;5033057;28;20485;-83
2022/10/09 06:31:21;;;;;;;18.20;10.70;;;;;;;4.45;100.00;102306.34;5033327;28;20054;-82
2022/10/09 06:33:47;;;;;;;16.73;10.50;;;;;;;4.59;100.00;102302.44;5033307;28;20037;-83
2022/10/09 06:36:15;;;;;;;17.47;10.80;;;;;;;4.64;100.00;102308.25;5032528;28;20048;-83
2022/10/09 06:38:41;;;;;;;15.10;10.90;;;;;;;4.64;100.00;102304.72;5021826;28;20029;-83
2022/10/09 06:41:13;;;;;;;16.07;10.13;;;;;;;4.68;100.00;102308.84;5028536;28;20037;-83
2022/10/09 06:43:39;;;;;;;16.50;11.00;;;;;;;4.75;100.00;102309.97;5030866;28;20587;-83
2022/10/09 06:46:08;;;;;;;19.10;10.93;;;;;;;4.77;100.00;102307.16;5032302;28;20045;-82
2022/10/09 06:48:36;;;;;;;16.03;10.63;;;;;;;4.86;100.00;102311.69;5032941;28;20040;-83
2022/10/09 06:51:03;;;;;;;16.67;11.23;;;;;;;4.98;100.00;102307.06;5031823;28;20041;-83
2022/10/09 06:53:29;;;;;;;19.37;11.63;;;;;;;5.07;100.00;102307.06;5033324;28;20108;-83
2022/10/09 06:55:56;;;;;;;16.10;11.90;;;;;;;5.19;100.00;102315.84;5030287;28;20083;-83
2022/10/09 06:58:21;;;;;;;17.93;12.33;;;;;;;5.29;100.00;102309.63;5032803;28;20458;-83
2022/10/09 07:00:47;;;;;;;16.93;11.60;;;;;;;5.37;100.00;102309.75;5032311;28;20037;-83
2022/10/09 07:03:12;;;;;;;18.57;12.17;;;;;;;5.48;100.00;102300.72;5032289;28;20481;-83
2022/10/09 07:05:38;;;;;;;20.57;12.10;;;;;;;5.62;100.00;102294.06;5031788;28;20044;-83
2022/10/09 07:08:03;;;;;;;19.40;11.90;;;;;;;5.73;100.00;102307.34;5032198;28;20037;-84
2022/10/09 07:10:28;;;;;;;17.23;11.70;;;;;;;5.88;100.00;102305.91;5031459;28;20048;-83
2022/10/09 07:12:54;;;;;;;18.70;12.03;;;;;;;5.96;100.00;102307.03;5006157;28;20052;-84
2022/10/09 07:15:19;;;;;;;18.07;11.37;;;;;;;6.07;100.00;102304.19;5031261;28;20064;-84
2022/10/09 07:17:44;;;;;;;16.43;11.30;;;;;;;6.19;100.00;102308.41;5031408;28;20071;-84
2022/10/09 07:20:10;;;;;;;16.77;10.87;;;;;;;6.31;100.00;102313.59;5005975;28;20041;-83
2022/10/09 07:22:35;;;;;;;15.70;10.47;;;;;;;6.42;100.00;102308.88;5031217;28;20041;-84
2022/10/09 07:25:01;;;;;;;17.00;11.43;;;;;;;6.55;100.00;102307.69;5031271;28;20083;-84
2022/10/09 07:27:26;;;;;;;18.20;11.27;;;;;;;6.66;100.00;102314.72;5033034;28;20086;-84
2022/10/09 07:29:52;;;;;;;18.17;11.03;;;;;;;6.81;100.00;102302.44;5031280;28;20088;-83
2022/10/09 07:32:17;;;;;;;17.50;11.13;;;;;;;6.92;100.00;102299.53;5031832;28;20056;-85
2022/10/09 07:34:42;;;;;;;18.77;10.60;;;;;;;7.08;100.00;102306.09;5005833;28;20041;-84
2022/10/09 07:37:08;;;;;;;19.67;10.17;;;;;;;7.32;100.00;102307.34;5031686;28;20037;-84
2022/10/09 07:39:34;;;;;;;19.10;10.13;;;;;;;7.48;100.00;102314.72;5031085;28;20064;-84
2022/10/09 07:42:00;;;;;;;18.33;9.90;;;;;;;7.64;100.00;102308.63;5031627;28;20067;-84
2022/10/09 07:44:26;;;;;;;17.00;9.57;;;;;;;7.91;100.00;102304.94;5030062;28;20036;-85
2022/10/09 07:46:51;;;;;;;14.83;8.80;;;;;;;8.17;100.00;102309.50;5031540;28;20045;-85
2022/10/09 07:49:16;;;;;;;15.23;8.53;;;;;;;8.42;99.61;102311.31;5031254;28;20121;-85
2022/10/09 07:51:42;;;;;;;16.30;8.03;;;;;;;8.56;97.88;102300.94;5007216;28;20037;-84
2022/10/09 07:54:07;;;;;;;13.53;7.53;;;;;;;8.76;96.58;102296.97;5031054;28;20120;-85
2022/10/09 07:56:36;;;;;;;15.77;7.10;;;;;;;9.04;94.61;102312.91;5031233;28;20082;-84
2022/10/09 07:59:07;;;;;;;17.60;7.90;;;;;;;9.35;93.45;102314.16;5031172;28;20029;-84
2022/10/09 08:01:34;;;;;;;13.70;6.63;;;;;;;9.58;92.01;102315.16;5031047;28;20039;-85
2022/10/09 08:04:00;;;;;;;14.20;7.50;;;;;;;9.81;91.25;102309.06;5030743;28;20041;-84
2022/10/09 08:06:26;;;;;;;11.97;6.60;;;;;;;9.97;89.16;102303.63;5006522;28;20334;-85
2022/10/09 08:08:53;;;;;;;14.33;6.53;;;;;;;10.25;89.08;102300.53;5030705;28;20489;-85
2022/10/09 08:11:20;;;;;;;13.47;6.50;;;;;;;10.35;86.03;102302.19;5031043;28;20033;-85
2022/10/09 08:13:46;;;;;;;13.60;6.20;;;;;;;10.56;85.54;102301.63;5031572;28;20160;-84
2022/10/09 08:16:12;;;;;;;14.43;6.07;;;;;;;10.60;85.36;102284.00;5030490;28;20127;-85
2022/10/09 08:18:38;;;;;;;11.40;5.97;;;;;;;10.86;84.92;102294.53;5030368;28;20036;-85
2022/10/09 08:21:06;;;;;;;15.03;6.10;;;;;;;11.12;84.17;102291.50;5029761;28;20037;-85
2022/10/09 08:23:32;;;;;;;12.63;6.03;;;;;;;11.14;82.26;102292.16;5030203;28;20452;-84
2022/10/09 08:25:57;;;;;;;14.73;6.00;;;;;;;11.54;82.88;102289.28;5030489;28;20048;-84
2022/10/09 08:28:23;;;;;;;10.30;6.00;;;;;;;11.73;81.17;102297.97;5005379;28;20052;-84
2022/10/09 08:30:48;;;;;;;15.53;6.37;;;;;;;11.81;79.73;102295.16;5029350;28;20048;-84
2022/10/09 08:33:14;;;;;;;13.10;6.03;;;;;;;11.99;79.32;102290.28;5030838;28;20033;-85
2022/10/09 08:35:39;;;;;;;11.87;5.87;;;;;;;12.11;78.14;102287.09;5030328;28;20029;-85
2022/10/09 08:38:05;;;;;;;12.90;6.83;;;;;;;12.28;77.98;102280.44;5029374;28;20074;-85
2022/10/09 08:41:01;;;;;;;12.20;5.87;;;;;;;12.71;79.34;102281.59;5004900;28;20056;-85
2022/10/09 08:43:33;;;;;;;13.63;6.47;;;;;;;12.73;76.94;102276.78;5030231;28;20884;-85
2022/10/09 08:46:02;;;;;;;13.70;5.97;;;;;;;12.93;76.34;102288.78;5029283;28;20040;-84
2022/10/09 08:48:28;;;;;;;13.37;6.00;;;;;;;12.95;73.08;102275.81;5030096;28;20033;-85
2022/10/09 08:50:57;;;;;;;13.33;6.00;;;;;;;13.08;74.06;102277.84;5029482;28;20033;-85
2022/10/09 08:53:38;;;;;;;12.93;6.07;;;;;;;13.11;72.58;102271.13;5028346;28;20382;-85
2022/10/09 08:56:09;;;;;;;12.50;5.80;;;;;;;13.12;72.54;102281.00;5029157;28;20366;-84
2022/10/09 08:58:38;;;;;;;9.63;5.73;;;;;;;13.21;73.05;102258.06;5029501;28;20206;-85
2022/10/09 09:01:25;;;;;;;13.47;6.37;;;;;;;13.46;73.11;102266.72;5029461;28;20590;-84
2022/10/09 09:03:50;;;;;;;11.33;5.77;;;;;;;13.54;71.79;102263.00;5030202;28;20043;-84
2022/10/09 09:06:25;;;;;;;10.67;5.60;;;;;;;13.58;69.66;102263.44;5003513;28;20067;-84
2022/10/09 09:09:17;;;;;;;11.53;5.93;;;;;;;13.66;70.92;102264.13;5030133;28;20758;-86
2022/10/09 09:11:52;;;;;;;10.13;5.30;;;;;;;13.61;69.85;102242.13;5029288;28;21011;-85
2022/10/09 09:14:20;;;;;;;11.80;5.60;;;;;;;13.66;69.26;102258.69;5029269;28;20037;-84
2022/10/09 09:16:59;;;;;;;11.77;5.67;;;;;;;13.95;69.97;102253.22;5029279;28;20033;-85
2022/10/09 09:19:38;;;;;;;9.33;5.70;;;;;;;14.16;70.41;102249.59;5029392;28;20036;-85
2022/10/09 09:22:10;;;;;;;14.07;6.03;;;;;;;14.35;69.89;102243.38;5029044;28;20564;-84
2022/10/09 09:24:43;;;;;;;14.30;5.90;;;;;;;14.40;68.21;102231.03;5029247;28;20065;-85
2022/10/09 09:27:15;;;;;;;11.23;5.27;;;;;;;14.62;65.84;102240.78;5028732;28;20047;-85
2022/10/09 09:29:50;;;;;;;13.80;5.17;;;;;;;14.78;66.13;102231.41;5030488;28;20457;-85
2022/10/09 09:32:26;;;;;;;10.20;5.33;;;;;;;14.75;65.44;102229.06;5029861;28;20116;-85
2022/10/09 09:34:58;;;;;;;11.10;5.10;;;;;;;14.94;64.43;102232.88;5032990;28;20181;-85
2022/10/09 09:37:23;;;;;;;11.43;4.80;;;;;;;15.13;63.19;102225.78;5025243;28;20050;-85
2022/10/09 09:39:49;;;;;;;13.63;5.13;;;;;;;15.12;62.79;102217.81;5032684;28;20037;-85
2022/10/09 09:42:18;;;;;;;10.37;4.70;;;;;;;15.24;62.09;102213.41;5008128;28;20911;-85
2022/10/09 09:45:02;;;;;;;10.47;4.80;;;;;;;15.33;64.28;102212.13;5033863;28;20029;-85
2022/10/09 09:47:46;;;;;;;;;;;;;;;15.79;64.40;102204.09;5034875;28;20037;-86
2022/10/09 09:50:12;;;;;;;10.37;4.70;;;;;;;15.76;63.21;102205.38;5037101;28;19916;-85
2022/10/09 09:52:42;;;;;;;11.43;5.00;;;;;;;15.62;59.85;102207.28;5041949;28;20036;-86
2022/10/09 09:55:27;;;;;;;10.97;4.23;;;;;;;15.84;61.34;102197.00;5029550;28;20033;-85
2022/10/09 09:58:00;;;;;;;12.07;4.93;;;;;;;15.96;61.10;102197.16;5033082;28;20044;-85
2022/10/09 10:00:26;;;;;;;9.27;4.40;;;;;;;16.33;61.15;102194.72;5024767;28;20459;-85
2022/10/09 10:03:04;;;;;;;11.80;4.70;;;;;;;16.53;60.98;102193.75;5032688;28;20051;-85
2022/10/09 10:05:35;;;;;;;12.93;4.78;;;;;;;16.64;59.81;102192.22;5032943;28;20068;-86
2022/10/09 10:08:12;;;;;;;10.45;4.53;;;;;;;16.62;57.90;102189.72;5032343;28;20488;-86
2022/10/09 10:10:44;;;;;;;9.82;4.40;;;;;;;16.54;58.46;102187.25;5033430;28;20052;-85
2022/10/09 10:13:44;;;;;;;9.97;4.30;;;;;;;16.74;57.70;102181.66;5030559;28;20560;-85
2022/10/09 10:16:21;;;;;;;7.43;4.50;;;;;;;16.78;58.58;102185.63;5028373;28;20037;-86
2022/10/09 10:18:46;;;;;;;10.68;4.22;;;;;;;16.72;56.25;102181.03;5028092;28;20063;-85
2022/10/09 10:21:14;;;;;;;9.50;4.22;;;;;;;16.53;55.79;102180.09;5028498;28;20500;-84
2022/10/09 10:23:44;;;;;;;8.35;4.00;;;;;;;16.73;56.94;102163.56;5027957;28;20080;-85
2022/10/09 10:26:23;;;;;;;8.32;4.60;;;;;;;16.76;57.08;102165.00;5027182;28;21346;-85
2022/10/09 10:28:59;;;;;;;8.38;4.40;;;;;;;16.83;56.37;102171.25;5028449;28;20091;-85
2022/10/09 10:31:37;;;;;;;9.13;4.40;;;;;;;16.95;55.51;102169.53;5026620;28;20354;-85
2022/10/09 10:34:06;;;;;;;11.75;4.78;;;;;;;16.94;55.21;102161.53;5026440;28;20065;-85
2022/10/09 10:36:32;;;;;;;9.52;4.60;;;;;;;17.07;56.16;102166.06;5028364;28;20036;-85
2022/10/09 10:39:11;;;;;;;10.38;4.30;;;;;;;17.10;54.06;102154.66;5028926;28;20051;-85
2022/10/09 10:41:44;;;;;;;10.68;4.35;;;;;;;17.03;55.11;102132.81;5027419;28;20060;-85
2022/10/09 10:44:27;;;;;;;11.13;4.38;;;;;;;17.06;54.80;102148.78;5027582;28;20079;-86
2022/10/09 10:47:01;;;;;;;9.10;4.30;;;;;;;17.15;54.58;102135.69;5025533;28;20041;-85
2022/10/09 10:49:26;;;;;;;7.28;4.30;;;;;;;17.22;53.93;102139.19;5028663;28;20033;-85
2022/10/09 10:52:07;;;;;;;10.57;4.10;;;;;;;17.33;52.32;102134.88;5028209;28;20064;-85
2022/10/09 10:54:47;;;;;;;7.47;3.85;;;;;;;17.23;53.09;102127.19;5027037;28;20040;-86
2022/10/09 10:57:25;;;;;;;8.73;3.80;;;;;;;17.34;55.11;102126.41;5027348;28;20782;-85
2022/10/09 10:59:53;;;;;;;7.05;3.38;;;;;;;17.24;52.73;102119.78;5020517;28;20036;-85
2022/10/09 11:02:31;;;;;;;8.98;3.60;;;;;;;17.48;55.33;102123.56;5027503;28;20063;-85
2022/10/09 11:05:09;;;;;;;7.32;3.58;;;;;;;17.77;54.20;102113.72;5027535;28;20045;-86
2022/10/09 11:07:52;;;;;;;9.13;3.75;;;;;;;17.81;54.29;102105.88;5026876;28;20064;-86
2022/10/09 11:13:31;;;;;;;6.55;3.40;;;;;;;17.74;52.84;102105.13;5029821;28;20406;-85
2022/10/09 11:16:17;;;;;;;7.55;3.80;;;;;;;17.38;52.40;102094.78;5030415;28;20462;-85
2022/10/09 11:19:14;;;;;;;9.77;3.50;;;;;;;17.61;53.47;102093.25;5031760;28;20055;-86
2022/10/09 11:22:00;;;;;;;10.63;3.88;;;;;;;17.52;53.70;102091.88;5030746;28;20041;-85
2022/10/09 11:24:38;;;;;;;7.13;4.05;;;;;;;17.11;53.51;102079.66;5031465;28;20119;-85
2022/10/09 11:27:36;;;;;;;9.13;3.88;;;;;;;17.34;53.51;102079.84;5031425;28;21033;-85
2022/10/09 11:30:12;;;;;;;7.85;3.60;;;;;;;16.97;55.42;102079.81;5031219;28;20307;-84
2022/10/09 11:32:59;;;;;;;7.27;3.10;;;;;;;16.90;53.60;102072.69;5031392;28;20125;-85